createdAt,value
2019-05-30T00:00:44.830Z,152719.30
2019-05-30T00:03:13.614Z,152716.69
2019-05-30T00:05:42.152Z,152685.14
2019-05-30T00:08:10.725Z,152673.27
2019-05-30T00:10:39.248Z,152644.39
2019-05-30T00:13:07.758Z,152656.22
2019-05-30T00:15:36.256Z,152648.31
2019-05-30T00:18:05.039Z,152671.97
2019-05-30T00:20:33.789Z,152628.59
2019-05-30T00:23:02.316Z,152641.72
2019-05-30T00:25:30.812Z,152635.19
2019-05-30T00:27:59.410Z,152623.37
2019-05-30T00:30:27.899Z,152602.34
2019-05-30T00:32:57.303Z,152636.50
2019-05-30T00:35:26.286Z,152627.30
2019-05-30T00:37:55.633Z,152618.09
2019-05-30T00:40:24.210Z,152627.30
2019-05-30T00:42:52.726Z,152640.42
2019-05-30T00:45:21.579Z,152622.02
2019-05-30T00:47:50.262Z,152602.34
2019-05-30T00:50:18.742Z,152622.02
2019-05-30T00:52:47.586Z,152623.37
2019-05-30T00:55:16.155Z,152618.09
2019-05-30T00:57:44.655Z,152610.19
2019-05-30T01:00:13.703Z,152552.36
2019-05-30T01:02:42.309Z,152589.13
2019-05-30T01:05:10.978Z,152554.97
2019-05-30T01:07:39.551Z,152562.87
2019-05-30T01:10:10.763Z,152535.27
2019-05-30T01:12:42.105Z,152539.19
2019-05-30T01:15:11.058Z,152536.58
2019-05-30T01:17:41.091Z,152554.97
2019-05-30T01:20:12.770Z,152520.84
2019-05-30T01:22:41.307Z,152526.06
2019-05-30T01:25:09.960Z,152512.94
2019-05-30T01:27:38.496Z,152507.66
2019-05-30T01:30:09.039Z,152487.95
2019-05-30T01:32:37.558Z,152493.23
2019-05-30T01:35:07.911Z,152484.03
2019-05-30T01:37:36.803Z,152449.91
2019-05-30T01:40:08.762Z,152449.91
2019-05-30T01:42:37.551Z,152431.50
2019-05-30T01:45:08.528Z,152447.28
2019-05-30T01:47:37.335Z,152440.70
2019-05-30T01:50:10.427Z,152411.80
2019-05-30T01:52:39.015Z,152434.13
2019-05-30T01:57:43.998Z,152390.80
2019-05-30T02:00:21.364Z,152405.22
2019-05-30T02:02:47.809Z,152392.09
2019-05-30T02:05:17.083Z,152380.30
2019-05-30T02:07:45.607Z,152375.06
2019-05-30T02:10:15.654Z,152375.06
2019-05-30T02:12:44.304Z,152373.72
2019-05-30T02:15:13.312Z,152389.48
2019-05-30T02:17:41.798Z,152371.09
2019-05-30T02:20:10.675Z,152333.06
2019-05-30T02:22:39.256Z,152305.47
2019-05-30T02:25:08.340Z,152306.78
2019-05-30T02:27:36.972Z,152280.50
2019-05-30T02:30:12.377Z,152272.66
2019-05-30T02:32:39.353Z,152280.50
2019-05-30T02:35:10.571Z,152287.08
2019-05-30T02:37:38.768Z,152270.00
2019-05-30T02:40:12.403Z,152245.08
2019-05-30T02:42:38.643Z,152210.97
2019-05-30T02:45:09.810Z,152199.17
2019-05-30T02:47:38.081Z,152204.41
2019-05-30T02:50:11.510Z,152192.59
2019-05-30T02:52:40.526Z,152179.44
2019-05-30T02:55:13.253Z,152153.17
2019-05-30T02:57:41.559Z,152149.25
2019-05-30T03:00:15.691Z,152151.87
2019-05-30T03:02:41.034Z,152158.44
2019-05-30T03:05:14.864Z,152140.06
2019-05-30T03:07:42.669Z,152132.19
2019-05-30T03:10:14.866Z,152130.88
2019-05-30T03:12:42.195Z,152170.25
2019-05-30T03:15:12.991Z,152155.78
2019-05-30T03:17:41.461Z,152143.98
2019-05-30T03:20:18.809Z,152145.28
2019-05-30T03:22:41.073Z,152147.95
2019-05-30T03:25:12.983Z,152168.94
2019-05-30T03:27:40.546Z,152146.59
2019-05-30T03:30:24.303Z,152163.67
2019-05-30T03:33:04.085Z,152147.95
2019-05-30T03:35:24.191Z,152140.06
2019-05-30T03:37:40.963Z,152140.06
2019-05-30T03:40:10.525Z,152140.06
2019-05-30T03:42:39.348Z,152138.75
2019-05-30T03:45:11.161Z,152121.69
2019-05-30T03:47:41.865Z,152107.28
2019-05-30T03:50:17.018Z,152092.81
2019-05-30T03:53:04.785Z,152067.91
2019-05-30T03:55:37.357Z,152103.31
2019-05-30T03:58:35.618Z,152108.58
2019-05-30T04:01:15.952Z,152121.69
2019-05-30T04:04:12.117Z,152112.50
2019-05-30T04:06:47.712Z,152134.80
2019-05-30T04:09:24.504Z,152153.17
2019-05-30T04:12:28.803Z,152150.56
2019-05-30T04:15:10.066Z,152140.06
2019-05-30T04:17:39.225Z,152162.36
2019-05-30T04:20:09.408Z,152159.75
2019-05-30T04:22:38.245Z,152155.78
2019-05-30T04:25:10.137Z,152170.25
2019-05-30T04:27:38.107Z,152197.81
2019-05-30T04:30:09.851Z,152199.17
2019-05-30T04:32:38.465Z,152192.59
2019-05-30T04:35:08.021Z,152224.09
2019-05-30T04:37:36.954Z,152226.70
2019-05-30T04:40:11.387Z,152239.86
2019-05-30T04:42:39.712Z,152258.19
2019-05-30T04:45:09.693Z,152287.08
2019-05-30T04:47:38.614Z,152281.86
2019-05-30T04:50:07.776Z,152304.16
2019-05-30T04:52:36.370Z,152336.97
2019-05-30T04:55:10.515Z,152355.38
2019-05-30T04:57:38.741Z,152373.72
2019-05-30T05:00:10.656Z,152411.80
2019-05-30T05:02:39.505Z,152413.11
2019-05-30T05:05:08.877Z,152431.50
2019-05-30T05:07:37.383Z,152452.52
2019-05-30T05:10:11.989Z,152491.92
2019-05-30T05:12:40.711Z,152499.81
2019-05-30T05:15:09.839Z,152547.08
2019-05-30T05:17:38.469Z,152573.38
2019-05-30T05:20:08.841Z,152602.34
2019-05-30T05:22:37.403Z,152627.30
2019-05-30T05:25:07.954Z,152660.14
2019-05-30T05:27:36.505Z,152678.55
2019-05-30T05:30:09.439Z,152692.98
2019-05-30T05:32:37.974Z,152727.19
2019-05-30T05:35:10.275Z,152744.25
2019-05-30T05:37:38.792Z,152760.05
2019-05-30T05:40:08.035Z,152823.16
2019-05-30T05:42:36.528Z,152865.23
2019-05-30T05:45:07.272Z,152894.17
2019-05-30T05:47:35.769Z,152938.87
2019-05-30T05:50:05.325Z,152979.70
2019-05-30T05:52:34.139Z,153002.06
2019-05-30T05:55:02.657Z,153058.66
2019-05-30T05:57:31.226Z,153061.28
2019-05-30T05:59:59.707Z,153116.53
2019-05-30T06:02:28.305Z,153106.02
2019-05-30T06:04:57.019Z,153141.58
2019-05-30T06:07:25.578Z,153125.75
2019-05-30T06:09:54.146Z,153162.63
2019-05-30T06:12:23.821Z,153260.03
2019-05-30T06:14:52.574Z,153336.44
2019-05-30T06:17:23.625Z,153460.27
2019-05-30T06:19:52.259Z,153456.33
2019-05-30T06:22:22.162Z,153700.19
2019-05-30T06:24:50.910Z,153750.30
2019-05-30T06:27:20.123Z,153957.44
2019-05-30T06:29:48.750Z,154156.78
2019-05-30T06:32:18.590Z,154107.92
2019-05-30T06:34:47.168Z,154237.34
2019-05-30T06:37:15.702Z,154294.16
2019-05-30T06:39:44.218Z,154463.30
2019-05-30T06:42:12.736Z,154489.69
2019-05-30T06:44:41.430Z,154480.44
2019-05-30T06:47:09.917Z,154537.30
2019-05-30T06:49:38.538Z,154443.47
2019-05-30T06:52:07.036Z,154681.45
2019-05-30T06:54:35.683Z,154870.63
2019-05-30T06:57:04.453Z,154830.94
2019-05-30T06:59:33.009Z,154923.55
2019-05-30T07:02:01.542Z,155018.83
2019-05-30T07:04:49.749Z,155016.19
2019-05-30T07:07:00.568Z,155071.81
2019-05-30T07:09:31.004Z,155106.22
2019-05-30T07:11:59.637Z,155210.88
2019-05-30T07:14:31.382Z,155157.86
2019-05-30T07:17:02.543Z,155363.22
2019-05-30T07:19:31.692Z,155392.37
2019-05-30T07:22:00.279Z,155385.72
2019-05-30T07:24:29.851Z,155585.88
2019-05-30T07:26:58.459Z,155608.45
2019-05-30T07:29:28.006Z,155455.97
2019-05-30T07:31:58.078Z,155539.50
2019-05-30T07:34:26.635Z,155546.16
2019-05-30T07:36:55.173Z,155654.89
2019-05-30T07:39:26.600Z,155424.17
2019-05-30T07:42:05.794Z,155636.27
2019-05-30T07:44:24.572Z,155676.09
2019-05-30T07:46:53.192Z,155666.81
2019-05-30T07:49:21.781Z,155665.50
2019-05-30T07:51:50.384Z,155694.67
2019-05-30T07:54:18.884Z,155788.83
2019-05-30T07:56:47.387Z,155790.16
2019-05-30T07:59:15.966Z,155861.84
2019-05-30T08:01:44.424Z,155864.48
2019-05-30T08:04:12.957Z,155920.19
2019-05-30T08:06:41.470Z,155953.41
2019-05-30T08:09:10.097Z,156086.13
2019-05-30T08:11:39.197Z,156031.72
2019-05-30T08:14:07.900Z,156095.44
2019-05-30T08:16:37.477Z,156240.20
2019-05-30T08:19:06.208Z,156017.09
2019-05-30T08:21:35.107Z,156051.64
2019-05-30T08:24:05.117Z,156098.06
2019-05-30T08:26:36.552Z,156245.55
2019-05-30T08:29:05.210Z,156193.70
2019-05-30T08:31:34.583Z,156232.22
2019-05-30T08:34:03.329Z,156749.31
2019-05-30T08:36:32.817Z,156095.44
2019-05-30T08:39:01.444Z,156337.14
2019-05-30T08:41:31.098Z,156290.69
2019-05-30T08:44:02.211Z,156347.77
2019-05-30T08:46:32.276Z,156419.56
2019-05-30T08:49:01.838Z,156416.92
2019-05-30T08:51:30.495Z,156426.22
2019-05-30T08:53:59.028Z,156419.56
2019-05-30T08:56:28.532Z,156519.25
2019-05-30T08:58:57.303Z,156385.03
2019-05-30T09:01:25.813Z,156585.72
2019-05-30T09:03:54.349Z,156616.30
2019-05-30T09:06:24.999Z,156552.50
2019-05-30T09:08:53.473Z,156636.25
2019-05-30T09:11:21.983Z,156686.77
2019-05-30T09:13:50.461Z,156892.95
2019-05-30T09:16:19.003Z,156819.75
2019-05-30T09:18:47.581Z,157191.09
2019-05-30T09:21:16.275Z,156918.25
2019-05-30T09:23:46.196Z,156956.81
2019-05-30T09:26:14.974Z,157036.70
2019-05-30T09:28:44.214Z,157011.39
2019-05-30T09:31:12.883Z,157252.41
2019-05-30T09:33:42.644Z,157224.42
2019-05-30T09:36:13.516Z,157056.67
2019-05-30T09:38:41.827Z,157241.75
2019-05-30T09:41:10.828Z,157265.70
2019-05-30T09:43:39.845Z,157185.75
2019-05-30T09:46:09.698Z,157223.09
2019-05-30T09:48:38.305Z,157340.25
2019-05-30T09:51:06.847Z,157458.83
2019-05-30T09:53:35.340Z,157538.83
2019-05-30T09:56:03.923Z,157498.84
2019-05-30T09:58:32.463Z,157513.53
2019-05-30T10:01:00.963Z,157526.84
2019-05-30T10:03:29.604Z,157264.37
2019-05-30T10:05:58.115Z,157328.28
2019-05-30T10:08:26.666Z,157306.97
2019-05-30T10:10:55.248Z,157401.58
2019-05-30T10:13:23.754Z,157497.52
2019-05-30T10:15:52.636Z,157448.17
2019-05-30T10:18:21.282Z,157580.13
2019-05-30T10:20:52.000Z,157490.80
2019-05-30T10:23:20.089Z,157577.47
2019-05-30T10:25:49.700Z,157436.19
2019-05-30T10:28:19.475Z,157569.47
2019-05-30T10:30:53.855Z,157553.45
2019-05-30T10:33:18.621Z,157586.81
2019-05-30T10:35:47.886Z,157449.50
2019-05-30T10:38:19.926Z,157573.44
2019-05-30T10:40:48.726Z,157046.03
2019-05-30T10:43:18.153Z,157239.05
2019-05-30T10:45:47.900Z,157196.45
2019-05-30T10:48:20.594Z,157156.52
2019-05-30T10:50:48.529Z,156749.31
2019-05-30T10:53:17.238Z,156572.44
2019-05-30T10:55:46.908Z,156446.16
2019-05-30T10:58:16.190Z,156491.31
2019-05-30T11:00:57.873Z,156370.34
2019-05-30T11:03:28.109Z,156268.11
2019-05-30T11:06:05.616Z,156183.08
2019-05-30T11:08:37.080Z,156167.12
2019-05-30T11:11:05.577Z,156104.73
2019-05-30T11:13:34.930Z,156005.16
2019-05-30T11:16:05.978Z,155982.56
2019-05-30T11:18:34.509Z,155767.62
2019-05-30T11:21:03.042Z,155823.31
2019-05-30T11:23:31.555Z,155845.91
2019-05-30T11:26:00.102Z,155840.56
2019-05-30T11:28:28.772Z,155831.28
2019-05-30T11:30:57.243Z,155851.23
2019-05-30T11:33:25.761Z,155827.31
2019-05-30T11:35:55.116Z,155768.94
2019-05-30T11:38:23.809Z,155755.69
2019-05-30T11:40:53.363Z,155715.89
2019-05-30T11:43:22.114Z,155625.66
2019-05-30T11:45:51.646Z,155699.95
2019-05-30T11:48:20.268Z,155623.03
2019-05-30T11:50:50.402Z,155628.34
2019-05-30T11:53:19.059Z,155636.27
2019-05-30T11:55:47.539Z,155588.56
2019-05-30T11:58:19.422Z,155599.17
2019-05-30T12:00:46.290Z,155596.48
2019-05-30T12:03:14.799Z,155612.41
2019-05-30T12:05:46.198Z,155625.66
2019-05-30T12:08:14.684Z,155605.77
2019-05-30T12:10:43.168Z,155623.03
2019-05-30T12:13:11.682Z,155596.48
2019-05-30T12:15:40.144Z,155559.39
2019-05-30T12:18:08.645Z,155528.91
2019-05-30T12:20:37.126Z,155559.39
2019-05-30T12:23:05.661Z,155566.03
2019-05-30T12:25:34.129Z,155514.34
2019-05-30T12:28:04.186Z,155579.28
2019-05-30T12:30:33.222Z,155576.66
2019-05-30T12:33:02.573Z,155570.00
2019-05-30T12:35:31.345Z,155566.03
2019-05-30T12:38:04.529Z,155588.56
2019-05-30T12:40:30.059Z,155599.17
2019-05-30T12:42:59.926Z,155632.31
2019-05-30T12:45:29.249Z,155615.06
2019-05-30T12:47:59.165Z,155623.03
2019-05-30T12:50:29.471Z,155617.75
2019-05-30T12:52:57.976Z,155644.23
2019-05-30T12:55:26.507Z,155641.59
2019-05-30T12:57:55.064Z,155633.63
2019-05-30T13:00:30.002Z,155636.27
2019-05-30T13:02:58.831Z,155648.19
2019-05-30T13:05:27.585Z,155587.25
2019-05-30T13:08:11.707Z,155604.45
2019-05-30T13:10:26.960Z,155583.23
2019-05-30T13:12:55.633Z,155564.67
2019-05-30T13:15:24.587Z,155587.25
2019-05-30T13:17:53.118Z,155536.88
2019-05-30T13:20:22.658Z,155546.16
2019-05-30T13:22:51.170Z,155546.16
2019-05-30T13:25:22.353Z,155562.03
2019-05-30T13:27:50.911Z,155527.59
2019-05-30T13:30:21.299Z,155516.98
2019-05-30T13:32:49.798Z,155524.95
2019-05-30T13:35:18.381Z,155526.27
2019-05-30T13:37:46.902Z,155524.95
2019-05-30T13:40:24.977Z,155514.34
2019-05-30T13:42:47.172Z,155503.75
2019-05-30T13:45:15.782Z,155532.86
2019-05-30T13:47:44.366Z,155523.58
2019-05-30T13:50:14.618Z,155526.27
2019-05-30T13:52:43.523Z,155518.31
2019-05-30T13:55:12.412Z,155490.45
2019-05-30T13:57:40.965Z,155495.78
2019-05-30T14:00:10.836Z,155522.27
2019-05-30T14:02:39.364Z,155543.47
2019-05-30T14:05:08.498Z,155539.50
2019-05-30T14:07:39.714Z,155524.95
2019-05-30T14:10:10.527Z,155514.34
2019-05-30T14:12:39.467Z,155535.55
2019-05-30T14:15:13.544Z,155546.16
2019-05-30T14:17:40.016Z,155575.28
2019-05-30T14:20:09.578Z,155593.84
2019-05-30T14:22:38.064Z,155571.31
2019-05-30T14:25:10.033Z,155577.97
2019-05-30T14:27:38.932Z,155583.23
2019-05-30T14:30:08.963Z,155583.23
2019-05-30T14:32:37.671Z,155585.88
2019-05-30T14:35:08.872Z,155580.61
2019-05-30T14:37:37.427Z,155603.13
2019-05-30T14:40:11.364Z,155637.59
2019-05-30T14:42:40.010Z,155625.66
2019-05-30T14:45:10.611Z,155623.03
2019-05-30T14:47:39.314Z,155623.03
2019-05-30T14:50:11.809Z,155638.95
2019-05-30T14:52:41.602Z,155623.03
2019-05-30T14:55:13.098Z,155595.16
2019-05-30T14:57:42.318Z,155609.78
2019-05-30T15:00:17.725Z,155626.98
2019-05-30T15:02:47.815Z,155623.03
2019-05-30T15:05:18.082Z,155623.03
2019-05-30T15:07:46.552Z,155623.03
2019-05-30T15:10:17.092Z,155638.95
2019-05-30T15:12:45.736Z,155645.56
2019-05-30T15:15:18.179Z,155641.59
2019-05-30T15:17:45.320Z,155649.56
2019-05-30T15:20:15.866Z,155657.53
2019-05-30T15:22:44.334Z,155658.84
2019-05-30T15:25:16.491Z,155641.59
2019-05-30T15:27:43.670Z,155657.53
2019-05-30T15:30:16.672Z,155654.89
2019-05-30T15:32:45.385Z,155644.23
2019-05-30T15:35:15.538Z,155619.06
2019-05-30T15:37:44.298Z,155603.13
2019-05-30T15:40:15.070Z,155620.38
2019-05-30T15:42:43.642Z,155623.03
2019-05-30T15:45:31.766Z,155623.03
2019-05-30T15:48:00.249Z,155629.67
2019-05-30T15:50:28.747Z,155629.67
2019-05-30T15:52:57.226Z,155633.63
2019-05-30T15:55:25.727Z,155630.98
2019-05-30T15:57:54.210Z,155589.89
2019-05-30T16:00:23.100Z,155559.39
2019-05-30T16:02:51.579Z,155551.44
2019-05-30T16:05:20.652Z,155552.75
2019-05-30T16:07:49.239Z,155547.47
2019-05-30T16:10:18.999Z,155570.00
2019-05-30T16:12:47.460Z,155564.67
2019-05-30T16:15:17.617Z,155522.27
2019-05-30T16:17:46.249Z,155516.98
2019-05-30T16:20:15.962Z,155507.70
2019-05-30T16:22:44.588Z,155516.98
2019-05-30T16:25:13.742Z,155503.75
2019-05-30T16:27:42.448Z,155523.58
2019-05-30T16:30:18.815Z,155515.67
2019-05-30T16:32:43.819Z,155503.75
2019-05-30T16:35:13.940Z,155506.38
2019-05-30T16:37:42.655Z,155523.58
2019-05-30T16:40:12.007Z,155509.03
2019-05-30T16:42:40.503Z,155527.59
2019-05-30T16:45:29.788Z,155497.09
2019-05-30T16:47:58.599Z,155473.25
2019-05-30T16:50:27.202Z,155485.19
2019-05-30T16:52:55.787Z,155495.78
2019-05-30T16:55:24.475Z,155475.91
2019-05-30T16:57:53.001Z,155493.14
2019-05-30T17:00:22.076Z,155510.34
2019-05-30T17:02:50.581Z,155487.81
2019-05-30T17:05:19.328Z,155497.09
2019-05-30T17:07:48.734Z,155490.45
2019-05-30T17:10:23.358Z,155479.86
2019-05-30T17:12:48.172Z,155455.97
2019-05-30T17:15:17.982Z,155452.00
2019-05-30T17:17:46.486Z,155445.36
2019-05-30T17:20:16.417Z,155420.22
2019-05-30T17:22:45.119Z,155397.64
2019-05-30T17:25:13.960Z,155400.33
2019-05-30T17:27:42.489Z,155392.37
2019-05-30T17:30:13.339Z,155365.84
2019-05-30T17:32:41.852Z,155336.75
2019-05-30T17:35:11.184Z,155319.50
2019-05-30T17:37:39.729Z,155269.16
2019-05-30T17:40:10.785Z,155270.48
2019-05-30T17:42:39.285Z,155259.89
2019-05-30T17:45:10.108Z,155261.20
2019-05-30T17:47:38.778Z,155249.23
2019-05-30T17:50:08.884Z,155232.06
2019-05-30T17:52:37.372Z,155213.50
2019-05-30T17:55:08.032Z,155214.81
2019-05-30T17:57:36.520Z,155208.19
2019-05-30T18:00:10.608Z,155201.59
2019-05-30T18:02:39.313Z,155168.45
2019-05-30T18:05:09.436Z,155157.86
2019-05-30T18:07:37.935Z,155156.53
2019-05-30T18:10:07.474Z,155153.91
2019-05-30T18:12:35.998Z,155156.53
2019-05-30T18:15:07.879Z,155132.72
2019-05-30T18:17:36.394Z,155138.05
2019-05-30T18:20:10.057Z,155095.62
2019-05-30T18:22:38.534Z,155116.86
2019-05-30T18:25:08.719Z,155079.77
2019-05-30T18:27:37.240Z,155032.05
2019-05-30T18:30:07.223Z,155022.78
2019-05-30T18:32:35.792Z,155008.23
2019-05-30T18:35:06.084Z,154981.80
2019-05-30T18:37:34.734Z,154985.75
2019-05-30T18:40:03.974Z,154989.70
2019-05-30T18:42:33.655Z,154975.16
2019-05-30T18:45:02.497Z,155022.78
2019-05-30T18:47:31.231Z,154995.02
2019-05-30T18:50:00.133Z,154947.34
2019-05-30T18:52:28.645Z,154954.00
2019-05-30T18:54:57.112Z,154905.02
2019-05-30T18:57:26.613Z,154902.38
2019-05-30T18:59:59.382Z,154898.44
2019-05-30T19:02:27.875Z,154903.70
2019-05-30T19:04:56.354Z,154891.80
2019-05-30T19:07:24.889Z,154910.33
2019-05-30T19:09:53.409Z,154893.13
2019-05-30T19:12:24.143Z,154869.31
2019-05-30T19:14:52.093Z,154870.63
2019-05-30T19:17:20.711Z,154874.58
2019-05-30T19:19:51.334Z,154874.58
2019-05-30T19:22:19.392Z,154869.31
2019-05-30T19:24:47.896Z,154864.00
2019-05-30T19:27:16.402Z,154886.48
2019-05-30T19:29:44.911Z,154856.09
2019-05-30T19:32:13.390Z,154826.94
2019-05-30T19:34:41.908Z,154811.03
2019-05-30T19:37:10.436Z,154838.88
2019-05-30T19:39:38.954Z,154830.94
2019-05-30T19:42:07.526Z,154825.63
2019-05-30T19:44:56.637Z,154797.83
2019-05-30T19:47:25.100Z,154821.62
2019-05-30T19:49:53.637Z,154815.03
2019-05-30T19:52:22.130Z,154791.19
2019-05-30T19:54:50.678Z,154779.30
2019-05-30T19:57:19.196Z,154775.34
2019-05-30T19:59:47.731Z,154770.03
2019-05-30T20:02:16.299Z,154767.41
2019-05-30T20:04:44.834Z,154754.19
2019-05-30T20:07:13.276Z,154748.87
2019-05-30T20:09:41.783Z,154743.61
2019-05-30T20:12:10.275Z,154735.66
2019-05-30T20:14:39.231Z,154727.72
2019-05-30T20:17:07.917Z,154701.30
2019-05-30T20:19:37.694Z,154718.45
2019-05-30T20:22:06.301Z,154697.30
2019-05-30T20:24:36.111Z,154676.14
2019-05-30T20:27:04.908Z,154652.34
2019-05-30T20:29:33.408Z,154666.87
2019-05-30T20:32:01.898Z,154689.41
2019-05-30T20:34:30.419Z,154672.19
2019-05-30T20:36:58.919Z,154606.09
2019-05-30T20:39:27.471Z,154664.25
2019-05-30T20:41:55.958Z,154673.50
2019-05-30T20:44:24.449Z,154670.88
2019-05-30T20:46:52.927Z,154660.30
2019-05-30T20:49:21.490Z,154648.41
2019-05-30T20:51:50.019Z,154643.09
2019-05-30T20:54:18.556Z,154607.42
2019-05-30T20:56:49.853Z,154619.31
2019-05-30T20:59:17.315Z,154584.84
2019-05-30T21:01:46.025Z,154550.50
2019-05-30T21:04:14.715Z,154571.66
2019-05-30T21:06:44.135Z,154569.02
2019-05-30T21:09:27.842Z,154531.98
2019-05-30T21:11:46.420Z,154550.50
2019-05-30T21:14:16.814Z,154582.22
2019-05-30T21:16:49.579Z,154531.98
2019-05-30T21:19:18.082Z,154541.25
2019-05-30T21:21:46.554Z,154502.95
2019-05-30T21:24:15.118Z,154497.64
2019-05-30T21:26:44.800Z,154472.55
2019-05-30T21:29:13.385Z,154517.47
2019-05-30T21:31:43.414Z,154460.66
2019-05-30T21:34:12.226Z,154504.27
2019-05-30T21:36:42.033Z,154479.12
2019-05-30T21:39:10.732Z,154460.66
2019-05-30T21:41:40.156Z,154430.27
2019-05-30T21:44:08.638Z,154376.06
2019-05-30T21:46:38.526Z,154413.08
2019-05-30T21:49:07.206Z,154440.84
2019-05-30T21:51:35.712Z,154450.09
2019-05-30T21:54:04.185Z,154411.75
2019-05-30T21:56:32.689Z,154447.41
2019-05-30T21:59:01.168Z,154430.27
2019-05-30T22:01:33.121Z,154376.06
2019-05-30T22:04:01.814Z,154373.44
2019-05-30T22:06:30.703Z,154324.48
2019-05-30T22:09:03.178Z,154369.48
2019-05-30T22:11:29.955Z,154376.06
2019-05-30T22:13:58.671Z,154381.38
2019-05-30T22:16:27.153Z,154376.06
2019-05-30T22:18:55.638Z,154362.81
2019-05-30T22:21:24.208Z,154381.38
2019-05-30T22:23:52.707Z,154358.88
2019-05-30T22:26:21.226Z,154360.19
2019-05-30T22:28:50.509Z,154344.31
2019-05-30T22:31:19.186Z,154309.97
2019-05-30T22:33:48.766Z,154325.84
2019-05-30T22:36:17.520Z,154315.28
2019-05-30T22:38:46.771Z,154278.28
2019-05-30T22:41:15.379Z,154331.11
2019-05-30T22:43:43.970Z,154316.59
2019-05-30T22:46:12.488Z,154309.97
2019-05-30T22:48:40.966Z,154321.86
2019-05-30T22:51:09.505Z,154296.78
2019-05-30T22:53:37.989Z,154288.84
2019-05-30T22:56:06.520Z,154278.28
2019-05-30T22:58:35.001Z,154270.34
2019-05-30T23:01:03.763Z,154299.41
2019-05-30T23:03:32.258Z,154265.09
2019-05-30T23:06:00.798Z,154267.72
2019-05-30T23:08:29.266Z,154258.47
2019-05-30T23:10:57.785Z,154261.09
2019-05-30T23:13:39.654Z,154251.84
2019-05-30T23:15:56.627Z,154237.34
2019-05-30T23:18:25.144Z,154239.97
2019-05-30T23:20:54.773Z,154249.22
2019-05-30T23:23:23.330Z,154228.09
2019-05-30T23:25:51.816Z,154233.39
2019-05-30T23:28:20.385Z,154228.09
2019-05-30T23:30:49.840Z,154234.72
2019-05-30T23:33:18.407Z,154206.97
2019-05-30T23:35:48.158Z,154228.09
2019-05-30T23:38:16.805Z,154233.39
2019-05-30T23:40:45.367Z,154209.59
2019-05-30T23:43:13.849Z,154217.53
2019-05-30T23:45:42.356Z,154212.27
2019-05-30T23:48:10.834Z,154226.78
2019-05-30T23:50:39.355Z,154204.34
2019-05-30T23:53:07.863Z,154204.34
2019-05-30T23:55:37.286Z,154213.58
2019-05-30T23:58:05.832Z,154172.66
